Time;durP1;ratioP1;P1;durP2;ratioP2;P2;SDS_P1;SDS_P2;PMS_P1;PMS_P2;Temp;Humidity;BMP_temperature;BMP_pressure;BME280_temperature;BME280_humidity;BME280_pressure;Samples;Min_cycle;Max_cycle;Signal;HPM_P1;HPM_P2
2023/12/06 00:00:52;;;;;;;;;;;;;;;18.06;62.02;100922.94;7405318;19;1592;-86
2023/12/06 00:03:20;;;;;;;;;;;;;;;18.01;62.22;100933.19;7404808;19;1886;-86
2023/12/06 00:05:51;;;;;;;;;;;;;;;17.95;62.21;100928.31;7405720;19;1848;-86
2023/12/06 00:08:19;;;;;;;;;;;;;;;17.95;61.99;100934.53;7395026;19;1634;-86
2023/12/06 00:10:48;;;;;;;;;;;;;;;17.94;62.13;100918.59;7407308;19;1568;-86
2023/12/06 00:13:17;;;;;;;;;;;;;;;17.92;62.21;100923.22;7403453;19;1674;-86
2023/12/06 00:15:45;;;;;;;;;;;;;;;17.80;62.39;100933.88;7404423;19;1542;-86
2023/12/06 00:18:16;;;;;;;;;;;;;;;17.86;62.21;100927.22;7407779;19;1572;-86
2023/12/06 00:20:45;;;;;;;;;;;;;;;18.34;60.91;100934.88;7405358;19;1670;-87
2023/12/06 00:23:17;;;;;;;;;;;;;;;18.47;60.51;100930.22;7407417;19;1197;-86
2023/12/06 00:25:45;;;;;;;;;;;;;;;18.24;61.02;100932.16;7406089;19;1777;-86
2023/12/06 00:28:11;;;;;;;;;;;;;;;18.10;61.49;100929.72;7405675;19;1638;-86
2023/12/06 00:30:40;;;;;;;;;;;;;;;18.01;61.73;100926.00;7409667;19;1670;-87
2023/12/06 00:33:08;;;;;;;;;;;;;;;17.91;61.92;100924.19;7405922;19;1683;-86
2023/12/06 00:35:39;;;;;;;;;;;;;;;17.87;62.07;100896.84;7407600;19;1647;-86
2023/12/06 00:38:08;;;;;;;;;;;;;;;17.89;61.96;100910.94;7406317;19;1411;-86
2023/12/06 00:40:36;;;;;;;;;;;;;;;17.87;61.98;100908.38;7407160;19;1544;-86
2023/12/06 00:43:05;;;;;;;;;;;;;;;17.85;61.82;100913.00;7406111;19;1784;-86
2023/12/06 00:45:33;;;;;;;;;;;;;;;17.88;62.11;100914.56;7406561;19;1748;-87
2023/12/06 00:48:02;;;;;;;;;;;;;;;17.77;62.35;100890.50;7405327;19;1861;-86
2023/12/06 00:50:30;;;;;;;;;;;;;;;17.83;61.94;100896.22;7408070;19;1023;-87
2023/12/06 00:53:01;;;;;;;;;;;;;;;18.38;60.50;100890.84;7404634;19;1461;-87
2023/12/06 00:55:29;;;;;;;;;;;;;;;18.52;60.20;100900.38;7405686;19;1243;-87
2023/12/06 00:57:58;;;;;;;;;;;;;;;18.29;60.32;100896.94;7403790;19;1754;-86
2023/12/06 01:00:27;;;;;;;;;;;;;;;18.10;61.24;100892.25;7404416;19;1658;-87
2023/12/06 01:02:55;;;;;;;;;;;;;;;17.99;61.34;100903.03;7406582;19;1580;-87
2023/12/06 01:05:24;;;;;;;;;;;;;;;17.91;61.58;100894.78;7403876;19;1850;-87
2023/12/06 01:07:52;;;;;;;;;;;;;;;17.87;61.69;100888.81;7404945;19;1834;-86
2023/12/06 01:10:24;;;;;;;;;;;;;;;17.91;61.67;100886.75;7400509;19;1381;-86
2023/12/06 01:12:52;;;;;;;;;;;;;;;17.84;61.91;100891.72;7405946;19;1781;-86
2023/12/06 01:15:21;;;;;;;;;;;;;;;17.82;61.70;100875.75;7406766;19;1678;-86
2023/12/06 01:17:49;;;;;;;;;;;;;;;17.69;62.01;100873.25;7402959;19;1699;-86
2023/12/06 01:20:17;;;;;;;;;;;;;;;18.00;61.19;100864.56;7405995;19;1456;-86
2023/12/06 01:22:48;;;;;;;;;;;;;;;18.47;60.06;100871.31;7409142;19;1473;-87
2023/12/06 01:25:17;;;;;;;;;;;;;;;18.35;60.13;100871.50;7417452;19;1691;-87
2023/12/06 01:27:48;;;;;;;;;;;;;;;18.14;60.31;100860.75;7420036;19;1824;-87
2023/12/06 01:30:18;;;;;;;;;;;;;;;18.01;61.36;100868.97;7418688;19;1533;-87
2023/12/06 01:32:47;;;;;;;;;;;;;;;17.91;61.34;100860.84;7409102;19;1641;-87
2023/12/06 01:35:15;;;;;;;;;;;;;;;17.92;61.49;100864.34;7403747;19;1753;-87
2023/12/06 01:37:44;;;;;;;;;;;;;;;17.83;61.55;100850.75;7407519;19;1725;-87
2023/12/06 01:40:13;;;;;;;;;;;;;;;17.84;61.87;100854.28;7404791;19;1847;-87
2023/12/06 01:42:41;;;;;;;;;;;;;;;17.78;61.51;100852.91;7406073;19;1841;-87
2023/12/06 01:45:12;;;;;;;;;;;;;;;17.82;61.75;100843.66;7405902;19;1777;-87
2023/12/06 01:47:51;;;;;;;;;;;;;;;18.25;60.56;100848.16;7401835;19;1830;-87
2023/12/06 01:50:27;;;;;;;;;;;;;;;18.38;60.24;100841.78;7402258;19;1684;-87
2023/12/06 01:53:04;;;;;;;;;;;;;;;18.14;60.46;100845.53;7408482;19;1934;-86
2023/12/06 01:55:34;;;;;;;;;;;;;;;18.02;61.10;100841.19;7409767;19;1581;-87
2023/12/06 01:58:03;;;;;;;;;;;;;;;17.92;61.48;100853.66;7403152;19;1501;-87
2023/12/06 02:00:34;;;;;;;;;;;;;;;17.80;61.62;100837.59;7409610;19;1556;-86
2023/12/06 02:03:23;;;;;;;;;;;;;;;17.80;61.50;100832.25;7407684;19;1500;-86
2023/12/06 02:05:54;;;;;;;;;;;;;;;17.76;61.88;100822.78;7411442;19;1687;-87
2023/12/06 02:08:22;;;;;;;;;;;;;;;17.67;61.65;100796.81;7400127;19;1819;-86
2023/12/06 02:10:51;;;;;;;;;;;;;;;17.82;61.38;100802.69;7417577;19;1854;-87
2023/12/06 02:13:19;;;;;;;;;;;;;;;18.35;60.24;100804.56;7419115;19;1815;-87
2023/12/06 02:15:51;;;;;;;;;;;;;;;18.38;60.06;100798.94;7414149;19;1793;-87
2023/12/06 02:18:19;;;;;;;;;;;;;;;18.12;60.37;100791.28;7413391;19;1568;-87
2023/12/06 02:20:49;;;;;;;;;;;;;;;17.97;61.02;100793.44;7411724;19;1877;-87
2023/12/06 02:23:18;;;;;;;;;;;;;;;17.89;61.25;100799.41;7414103;19;1776;-87
2023/12/06 02:25:49;;;;;;;;;;;;;;;17.86;61.30;100788.97;7414608;19;1749;-87
2023/12/06 02:28:18;;;;;;;;;;;;;;;17.84;61.38;100785.56;7413196;19;1873;-87
2023/12/06 02:30:46;;;;;;;;;;;;;;;17.80;61.50;100784.09;7414727;19;1682;-87
2023/12/06 02:33:14;;;;;;;;;;;;;;;17.70;61.62;100770.63;7409124;19;1326;-87
2023/12/06 02:35:48;;;;;;;;;;;;;;;18.29;60.15;100763.94;7410759;19;1690;-87
2023/12/06 02:38:17;;;;;;;;;;;;;;;19.11;58.05;100767.63;7409962;19;1793;-87
2023/12/06 02:40:46;;;;;;;;;;;;;;;19.88;56.40;100784.03;7411472;19;1506;-87
2023/12/06 02:43:17;;;;;;;;;;;;;;;19.95;56.19;100769.03;7407436;19;1608;-87
2023/12/06 02:45:46;;;;;;;;;;;;;;;19.91;56.27;100763.09;7405594;19;1600;-84
2023/12/06 02:48:14;;;;;;;;;;;;;;;19.74;56.76;100778.09;7406915;19;1949;-86
2023/12/06 02:50:49;;;;;;;;;;;;;;;19.88;56.50;100778.66;7409091;19;1485;-86
2023/12/06 02:53:17;;;;;;;;;;;;;;;19.91;56.27;100784.56;7406350;19;1682;-86
2023/12/06 02:55:45;;;;;;;;;;;;;;;19.87;56.47;100767.06;7407438;19;1694;-86
2023/12/06 02:58:14;;;;;;;;;;;;;;;20.07;56.17;100778.63;7406336;19;1667;-86
2023/12/06 03:00:44;;;;;;;;;;;;;;;20.16;55.69;100771.59;7410414;19;1627;-85
2023/12/06 03:03:13;;;;;;;;;;;;;;;20.18;55.69;100769.59;7405535;19;1750;-85
2023/12/06 03:05:42;;;;;;;;;;;;;;;20.12;55.72;100757.59;7409201;19;1567;-85
2023/12/06 03:08:14;;;;;;;;;;;;;;;20.22;55.61;100765.63;7406916;19;1834;-85
2023/12/06 03:10:42;;;;;;;;;;;;;;;20.28;55.61;100770.44;7397041;19;1916;-85
2023/12/06 03:13:10;;;;;;;;;;;;;;;20.29;55.32;100755.16;7406937;19;1847;-86
2023/12/06 03:15:39;;;;;;;;;;;;;;;20.39;55.32;100761.34;7408098;19;1732;-85
2023/12/06 03:18:10;;;;;;;;;;;;;;;20.38;55.02;100762.38;7407143;19;1894;-86
2023/12/06 03:20:38;;;;;;;;;;;;;;;20.41;55.09;100765.63;7405099;19;1611;-85
2023/12/06 03:23:08;;;;;;;;;;;;;;;20.45;54.99;100771.50;7408369;19;1505;-86
2023/12/06 03:25:36;;;;;;;;;;;;;;;20.50;54.84;100780.00;7407815;19;1635;-85
2023/12/06 03:28:05;;;;;;;;;;;;;;;20.53;54.92;100773.47;7405249;19;1851;-85
2023/12/06 03:30:34;;;;;;;;;;;;;;;20.53;54.87;100771.66;7420269;19;1679;-85
2023/12/06 03:33:02;;;;;;;;;;;;;;;20.61;54.80;100782.56;7426757;19;1797;-85
2023/12/06 03:35:33;;;;;;;;;;;;;;;20.53;54.96;100763.59;7414678;19;1737;-85
2023/12/06 03:38:02;;;;;;;;;;;;;;;20.64;54.72;100776.03;7411567;19;1679;-85
2023/12/06 03:40:30;;;;;;;;;;;;;;;20.68;54.72;100761.31;7408080;19;1339;-85
2023/12/06 03:42:58;;;;;;;;;;;;;;;20.62;54.71;100768.13;7405229;19;1782;-86
2023/12/06 03:45:27;;;;;;;;;;;;;;;20.59;54.83;100771.13;7406224;19;1671;-85
2023/12/06 03:47:55;;;;;;;;;;;;;;;20.64;54.81;100760.75;7404812;19;1853;-86
2023/12/06 03:50:23;;;;;;;;;;;;;;;20.71;54.54;100787.03;7406367;19;1579;-85
2023/12/06 03:52:55;;;;;;;;;;;;;;;20.58;54.83;100772.06;7408893;19;1345;-86
2023/12/06 03:55:24;;;;;;;;;;;;;;;20.69;54.74;100756.78;7416813;19;1933;-86
2023/12/06 03:57:52;;;;;;;;;;;;;;;20.72;54.62;100757.34;7413779;19;1524;-84
2023/12/06 04:00:21;;;;;;;;;;;;;;;20.42;54.95;100756.53;7416800;19;1563;-86
2023/12/06 04:02:49;;;;;;;;;;;;;;;19.80;56.82;100756.06;7402288;19;1741;-86
2023/12/06 04:05:18;;;;;;;;;;;;;;;19.32;57.80;100746.09;7399573;19;1651;-86
2023/12/06 04:07:46;;;;;;;;;;;;;;;19.06;58.34;100762.69;7400039;19;1857;-85
2023/12/06 04:10:17;;;;;;;;;;;;;;;18.90;58.73;100773.06;7389187;19;1848;-86
2023/12/06 04:12:46;;;;;;;;;;;;;;;18.77;59.11;100767.03;7398283;19;1921;-86
2023/12/06 04:15:14;;;;;;;;;;;;;;;18.67;59.25;100773.19;7400696;19;1565;-86
2023/12/06 04:17:43;;;;;;;;;;;;;;;18.63;59.29;100776.28;7406555;19;1789;-86
2023/12/06 04:20:13;;;;;;;;;;;;;;;18.44;59.84;100782.34;7409273;19;1717;-85
2023/12/06 04:22:41;;;;;;;;;;;;;;;18.79;59.09;100770.44;7405049;19;1686;-86
2023/12/06 04:25:10;;;;;;;;;;;;;;;19.45;57.59;100778.84;7403004;19;1528;-86
2023/12/06 04:27:41;;;;;;;;;;;;;;;19.60;57.10;100760.53;7405089;19;1844;-86
2023/12/06 04:30:10;;;;;;;;;;;;;;;19.60;56.95;100767.75;7406600;19;1640;-85
2023/12/06 04:32:39;;;;;;;;;;;;;;;19.21;58.16;100789.09;7402090;19;1487;-85
2023/12/06 04:35:07;;;;;;;;;;;;;;;18.91;59.12;100782.78;7403009;19;1774;-86
2023/12/06 04:37:36;;;;;;;;;;;;;;;18.74;59.28;100769.97;7402737;19;1400;-86
2023/12/06 04:40:04;;;;;;;;;;;;;;;19.00;58.61;100779.31;7402058;19;1838;-85
2023/12/06 04:42:33;;;;;;;;;;;;;;;19.53;57.70;100780.00;7402774;19;1631;-86
2023/12/06 04:45:04;;;;;;;;;;;;;;;19.74;57.39;100793.34;7403163;19;1507;-85
2023/12/06 04:47:33;;;;;;;;;;;;;;;19.23;57.95;100792.50;7401826;19;1855;-85
2023/12/06 04:50:03;;;;;;;;;;;;;;;18.83;58.80;100766.53;7401416;19;1686;-86
2023/12/06 04:52:31;;;;;;;;;;;;;;;18.96;59.15;100785.03;7324583;19;12950;-85
2023/12/06 04:55:04;;;;;;;;;;;;;;;19.34;58.41;100778.97;7401795;19;1669;-86
2023/12/06 04:57:38;;;;;;;;;;;;;;;19.50;58.13;100777.59;7400474;19;1342;-84
2023/12/06 05:00:10;;;;;;;;;;;;;;;19.75;57.27;100782.44;7402324;19;1421;-84
2023/12/06 05:02:39;;;;;;;;;;;;;;;19.56;57.56;100767.16;7396226;19;1477;-82
2023/12/06 05:05:07;;;;;;;;;;;;;;;19.16;58.25;100788.66;7400096;19;1411;-83
2023/12/06 05:07:37;;;;;;;;;;;;;;;18.84;59.35;100773.56;7398641;19;1838;-83
2023/12/06 05:10:06;;;;;;;;;;;;;;;18.76;59.36;100794.78;7382042;19;1870;-83
2023/12/06 05:12:34;;;;;;;;;;;;;;;19.05;58.97;100790.44;7398271;19;1744;-83
2023/12/06 05:15:03;;;;;;;;;;;;;;;19.37;58.03;100786.72;7398586;19;1083;-84
2023/12/06 05:17:34;;;;;;;;;;;;;;;19.50;57.83;100789.19;7393226;19;1546;-83
2023/12/06 05:20:02;;;;;;;;;;;;;;;19.16;58.66;100784.16;7396488;19;1450;-83
2023/12/06 05:22:34;;;;;;;;;;;;;;;18.80;59.72;100777.50;7400318;19;1486;-84
2023/12/06 05:25:03;;;;;;;;;;;;;;;18.77;60.09;100775.06;7397419;19;1221;-83
2023/12/06 05:27:32;;;;;;;;;;;;;;;19.07;58.98;100767.03;7399844;19;1853;-84
2023/12/06 05:30:01;;;;;;;;;;;;;;;19.43;58.34;100780.81;7397696;19;1490;-87
2023/12/06 05:32:29;;;;;;;;;;;;;;;19.70;57.35;100773.13;7399211;19;1839;-84
2023/12/06 05:35:06;;;;;;;;;;;;;;;19.75;57.53;100768.19;7400015;19;1080;-83
2023/12/06 05:37:35;;;;;;;;;;;;;;;19.80;57.38;100774.84;7399999;19;1483;-83
2023/12/06 05:40:06;;;;;;;;;;;;;;;19.75;57.38;100769.03;7409949;19;2002;-83
2023/12/06 05:42:34;;;;;;;;;;;;;;;19.71;57.39;100769.44;7406375;19;1328;-83
2023/12/06 05:45:04;;;;;;;;;;;;;;;19.79;57.06;100774.97;7415755;19;1456;-84
2023/12/06 05:47:32;;;;;;;;;;;;;;;19.83;57.18;100779.06;7417913;19;1535;-82
2023/12/06 05:50:01;;;;;;;;;;;;;;;19.77;57.36;100769.75;7415959;19;1744;-83
2023/12/06 05:52:32;;;;;;;;;;;;;;;19.80;57.17;100761.44;7416280;19;1372;-84
2023/12/06 05:55:00;;;;;;;;;;;;;;;19.82;57.56;100778.22;7409508;19;1831;-83
2023/12/06 05:57:28;;;;;;;;;;;;;;;19.84;57.51;100776.25;7410110;19;1040;-85
2023/12/06 05:59:57;;;;;;;;;;;;;;;19.94;57.65;100762.00;7413085;19;1744;-83
2023/12/06 06:02:26;;;;;;;;;;;;;;;19.90;58.03;100771.31;7414115;19;1138;-85
2023/12/06 06:04:54;;;;;;;;;;;;;;;19.87;57.74;100767.06;7411571;19;1403;-85
2023/12/06 06:07:24;;;;;;;;;;;;;;;19.86;58.04;100776.13;7409234;19;1959;-85
2023/12/06 06:09:58;;;;;;;;;;;;;;;19.85;58.29;100769.88;7402128;19;1835;-85
2023/12/06 06:12:31;;;;;;;;;;;;;;;19.89;57.18;100785.72;7414207;19;1491;-85
2023/12/06 06:14:59;;;;;;;;;;;;;;;19.93;56.97;100777.22;7411729;19;1502;-85
2023/12/06 06:17:28;;;;;;;;;;;;;;;19.99;56.71;100776.66;7411927;19;1902;-85
2023/12/06 06:19:56;;;;;;;;;;;;;;;20.04;56.67;100778.94;7408311;19;1396;-85
2023/12/06 06:22:25;;;;;;;;;;;;;;;20.08;56.35;100777.66;7407105;19;1423;-85
2023/12/06 06:24:53;;;;;;;;;;;;;;;19.84;56.88;100772.72;7409391;19;1522;-85
2023/12/06 06:27:24;;;;;;;;;;;;;;;19.39;57.82;100779.41;7410550;19;1469;-85
2023/12/06 06:29:52;;;;;;;;;;;;;;;19.00;58.90;100781.09;7407270;19;1813;-85
2023/12/06 06:32:21;;;;;;;;;;;;;;;18.73;59.35;100781.69;7410304;19;1532;-83
2023/12/06 06:34:49;;;;;;;;;;;;;;;18.84;57.42;100790.50;7405077;19;1454;-84
2023/12/06 06:37:18;;;;;;;;;;;;;;;19.15;56.28;100781.59;7410415;19;1579;-84
2023/12/06 06:39:47;;;;;;;;;;;;;;;19.50;55.25;100782.94;7410925;19;1832;-84
2023/12/06 06:42:16;;;;;;;;;;;;;;;19.64;54.69;100777.19;7407678;19;1517;-84
2023/12/06 06:44:55;;;;;;;;;;;;;;;19.72;54.69;100792.63;7411092;19;1856;-83
2023/12/06 06:47:26;;;;;;;;;;;;;;;19.67;54.77;100787.63;7411154;19;1744;-84
2023/12/06 06:49:55;;;;;;;;;;;;;;;19.70;54.71;100782.00;7408165;19;1846;-84
2023/12/06 06:52:24;;;;;;;;;;;;;;;19.66;54.84;100778.75;7409300;19;1545;-84
2023/12/06 06:54:52;;;;;;;;;;;;;;;19.67;54.78;100782.28;7407439;19;1123;-83
2023/12/06 06:57:20;;;;;;;;;;;;;;;19.73;54.67;100787.09;7404966;19;1827;-84
2023/12/06 06:59:49;;;;;;;;;;;;;;;19.71;54.77;100785.53;7411842;19;1105;-84
2023/12/06 07:02:20;;;;;;;;;;;;;;;19.81;54.68;100778.38;7408959;19;1438;-83
2023/12/06 07:04:49;;;;;;;;;;;;;;;19.80;54.74;100782.88;7409582;19;1206;-84
2023/12/06 07:07:19;;;;;;;;;;;;;;;19.77;54.85;100793.06;7409298;19;1849;-84
2023/12/06 07:09:47;;;;;;;;;;;;;;;19.78;54.95;100787.56;7401143;19;1822;-84
2023/12/06 07:12:16;;;;;;;;;;;;;;;19.79;54.56;100797.28;7410262;19;1559;-84
2023/12/06 07:14:45;;;;;;;;;;;;;;;19.85;54.80;100790.50;7413938;19;1524;-84
2023/12/06 07:17:13;;;;;;;;;;;;;;;19.81;54.89;100787.25;7411828;19;1577;-84
2023/12/06 07:19:45;;;;;;;;;;;;;;;19.85;54.88;100795.88;7411199;19;1684;-83
2023/12/06 07:37:00;;;;;;;;;;;;;;;19.54;56.00;100781.72;7260104;19;3116862;-44
2023/12/06 07:39:28;;;;;;;;;;;;;;;19.54;55.85;100830.00;7419877;19;1832;-44
2023/12/06 07:41:56;;;;;;;;;;;;;;;19.15;56.93;100803.03;7417915;19;1560;-44
2023/12/06 07:44:25;;;;;;;;;;;;;;;18.88;57.64;100812.53;7423960;19;1849;-44
2023/12/06 07:46:53;;;;;;;;;;;;;;;18.73;58.05;100797.75;7424241;19;1731;-44
2023/12/06 07:49:21;;;;;;;;;;;;;;;19.05;57.22;100801.16;7424467;19;1667;-44
2023/12/06 07:51:50;;;;;;;;;;;;;;;19.53;56.09;100798.78;7426090;19;1851;-44
2023/12/06 07:54:21;;;;;;;;;;;;;;;19.68;55.56;100792.03;7427079;19;954;-44
2023/12/06 07:56:49;;;;;;;;;;;;;;;19.75;55.55;100803.91;7424386;19;1826;-44
2023/12/06 07:59:17;;;;;;;;;;;;;;;19.79;55.55;100796.44;7423903;19;1382;-44
2023/12/06 08:01:46;;;;;;;;;;;;;;;19.81;55.38;100789.94;7421034;19;1809;-43
2023/12/06 08:04:15;;;;;;;;;;;;;;;19.80;55.37;100779.38;7420581;19;1571;-44
2023/12/06 08:06:43;;;;;;;;;;;;;;;19.84;55.36;100770.88;7423345;19;1986;-43
2023/12/06 08:09:12;;;;;;;;;;;;;;;19.82;55.25;100780.91;7423775;19;1791;-44
2023/12/06 08:11:44;;;;;;;;;;;;;;;19.78;55.48;100784.88;7420659;19;1541;-43
2023/12/06 08:14:12;;;;;;;;;;;;;;;19.28;56.44;100792.94;7421916;19;1531;-43
2023/12/06 08:16:40;;;;;;;;;;;;;;;18.96;57.24;100787.72;7424296;19;1786;-43
2023/12/06 08:19:09;;;;;;;;;;;;;;;18.87;57.40;100800.09;7425389;19;2027;-43
2023/12/06 08:21:37;;;;;;;;;;;;;;;19.15;56.79;100789.66;7423834;19;1034;-43
2023/12/06 08:24:06;;;;;;;;;;;;;;;19.48;56.03;100800.03;7423163;19;1762;-43
2023/12/06 08:26:35;;;;;;;;;;;;;;;19.63;55.68;100796.94;7420271;19;1921;-43
2023/12/06 08:29:05;;;;;;;;;;;;;;;19.25;56.39;100806.59;7423946;19;1805;-43
2023/12/06 08:31:34;;;;;;;;;;;;;;;18.94;57.33;100809.31;7422367;19;1810;-43
2023/12/06 08:34:02;;;;;;;;;;;;;;;18.32;57.70;100740.56;7421973;19;1857;-43
2023/12/06 08:36:30;;;;;;;;;;;;;;;19.00;57.17;100797.19;7413209;19;1826;-43
2023/12/06 08:38:59;;;;;;;;;;;;;;;19.42;56.32;100810.47;7395394;19;1719;-43
2023/12/06 08:41:27;;;;;;;;;;;;;;;19.65;55.58;100800.34;7393668;19;1806;-43
2023/12/06 08:43:55;;;;;;;;;;;;;;;19.73;55.57;100797.00;7395159;19;1828;-43
2023/12/06 08:46:26;;;;;;;;;;;;;;;19.78;55.31;100800.97;7395232;19;1872;-43
2023/12/06 08:48:55;;;;;;;;;;;;;;;19.80;55.17;100785.56;7393923;19;1070;-43
2023/12/06 08:51:23;;;;;;;;;;;;;;;19.85;55.21;100796.72;7394529;19;1920;-43
2023/12/06 08:53:51;;;;;;;;;;;;;;;19.82;55.05;100785.44;7394861;19;1768;-43
2023/12/06 08:56:20;;;;;;;;;;;;;;;19.35;56.17;100807.47;7393246;19;1849;-43
2023/12/06 08:58:48;;;;;;;;;;;;;;;18.99;57.01;100795.50;7395157;19;1829;-43
2023/12/06 09:01:16;;;;;;;;;;;;;;;18.78;57.67;100787.47;7393743;19;1809;-43
2023/12/06 09:03:47;;;;;;;;;;;;;;;18.99;57.19;100785.63;7393609;19;1501;-43
2023/12/06 09:06:16;;;;;;;;;;;;;;;19.28;56.44;100793.78;7391704;19;1866;-43
2023/12/06 09:08:44;;;;;;;;;;;;;;;19.67;55.89;100761.66;7392841;19;1715;-43
2023/12/06 09:11:12;;;;;;;;;;;;;;;19.77;55.43;100772.41;7394423;19;1726;-43
2023/12/06 09:13:41;;;;;;;;;;;;;;;19.81;55.32;100767.63;7393372;19;1339;-43
2023/12/06 09:16:09;;;;;;;;;;;;;;;19.74;55.34;100753.94;7394995;19;1461;-43
2023/12/06 09:18:37;;;;;;;;;;;;;;;19.76;55.33;100748.44;7394514;19;1395;-43
2023/12/06 09:21:09;;;;;;;;;;;;;;;19.37;56.26;100759.91;7395140;19;1083;-43
2023/12/06 09:23:37;;;;;;;;;;;;;;;19.03;57.27;100770.97;7393151;19;1831;-43
2023/12/06 09:26:06;;;;;;;;;;;;;;;18.81;57.59;100763.97;7390805;19;1849;-43
2023/12/06 09:28:34;;;;;;;;;;;;;;;18.93;57.45;100755.84;7390744;19;1681;-43
2023/12/06 09:31:03;;;;;;;;;;;;;;;19.35;56.25;100745.81;7389804;19;1752;-43
2023/12/06 09:33:31;;;;;;;;;;;;;;;19.65;55.65;100738.63;7391453;19;1365;-43
2023/12/06 09:35:59;;;;;;;;;;;;;;;19.86;54.87;100733.19;7390484;19;1454;-44
2023/12/06 09:38:30;;;;;;;;;;;;;;;19.95;54.87;100737.69;7392681;19;1616;-43
2023/12/06 09:41:00;;;;;;;;;;;;;;;19.81;55.03;100722.00;7391036;19;1649;-43
2023/12/06 09:43:31;;;;;;;;;;;;;;;19.98;54.48;100723.16;7390356;19;1861;-43
2023/12/06 09:46:00;;;;;;;;;;;;;;;19.95;54.41;100726.94;7390364;19;1839;-43
2023/12/06 09:48:28;;;;;;;;;;;;;;;19.57;55.46;100735.81;7389274;19;1489;-44
2023/12/06 09:50:56;;;;;;;;;;;;;;;19.17;56.34;100731.38;7392237;19;1576;-44
2023/12/06 09:53:25;;;;;;;;;;;;;;;18.93;57.18;100732.56;7390299;19;1912;-44
2023/12/06 09:55:57;;;;;;;;;;;;;;;18.90;57.62;100738.22;7390973;19;1751;-44
2023/12/06 09:58:25;;;;;;;;;;;;;;;19.37;56.87;100708.97;7386420;19;1605;-46
2023/12/06 10:00:54;;;;;;;;;;;;;;;19.48;56.20;100703.50;7372572;19;1640;-44
2023/12/06 10:03:24;;;;;;;;;;;;;;;18.63;57.32;100648.56;7385827;19;1549;-43
2023/12/06 10:05:55;;;;;;;;;;;;;;;19.04;58.00;100716.41;7388635;19;1834;-44
2023/12/06 10:08:24;;;;;;;;;;;;;;;18.88;58.33;100716.91;7391362;19;1610;-44
2023/12/06 10:11:04;;;;;;;;;;;;;;;18.87;58.88;100690.25;7391363;19;1558;-44
2023/12/06 10:13:35;;;;;;;;;;;;;;;19.44;57.05;100680.63;7388838;19;1628;-44
2023/12/06 10:16:04;;;;;;;;;;;;;;;19.81;56.22;100687.97;7391627;19;1613;-44
2023/12/06 10:18:34;;;;;;;;;;;;;;;19.92;55.85;100689.66;7390429;19;1516;-43
2023/12/06 10:21:02;;;;;;;;;;;;;;;20.00;55.73;100691.63;7392506;19;1576;-44
2023/12/06 10:23:31;;;;;;;;;;;;;;;19.99;55.76;100680.03;7391494;19;1905;-44
2023/12/06 10:25:59;;;;;;;;;;;;;;;19.98;55.62;100682.88;7388279;19;1854;-44
2023/12/06 10:28:30;;;;;;;;;;;;;;;19.99;55.81;100668.47;7391903;19;1723;-44
2023/12/06 10:31:03;;;;;;;;;;;;;;;20.10;55.46;100668.31;7378467;19;1481;-43
2023/12/06 10:33:32;;;;;;;;;;;;;;;20.08;55.72;100662.22;7391057;19;1763;-44
2023/12/06 10:36:02;;;;;;;;;;;;;;;20.08;55.65;100672.13;7388530;19;1648;-44
2023/12/06 10:38:31;;;;;;;;;;;;;;;20.04;55.60;100667.03;7391138;19;1399;-44
2023/12/06 10:41:02;;;;;;;;;;;;;;;20.16;55.34;100680.31;7391511;19;1524;-45
2023/12/06 10:43:34;;;;;;;;;;;;;;;20.17;55.24;100668.56;7388794;19;1534;-44
2023/12/06 10:46:02;;;;;;;;;;;;;;;20.16;55.45;100664.19;7388409;19;1837;-45
2023/12/06 10:48:32;;;;;;;;;;;;;;;20.14;55.49;100661.66;7390060;19;1167;-44
2023/12/06 10:51:00;;;;;;;;;;;;;;;20.11;55.83;100655.72;7391224;19;1803;-45
2023/12/06 10:53:29;;;;;;;;;;;;;;;20.14;55.83;100663.50;7389302;19;1566;-44
2023/12/06 10:55:58;;;;;;;;;;;;;;;20.15;55.75;100674.06;7388581;19;1415;-44
2023/12/06 10:58:26;;;;;;;;;;;;;;;20.22;55.48;100659.06;7390172;19;1459;-44
2023/12/06 11:01:00;;;;;;;;;;;;;;;20.17;55.73;100661.34;7387041;19;1673;-44
2023/12/06 11:03:28;;;;;;;;;;;;;;;20.15;55.34;100657.13;7388867;19;1448;-44
2023/12/06 11:05:58;;;;;;;;;;;;;;;20.19;55.72;100661.19;7387669;19;1866;-44
2023/12/06 11:08:38;;;;;;;;;;;;;;;20.15;55.62;100647.22;7388058;19;1358;-44
2023/12/06 11:11:17;;;;;;;;;;;;;;;20.18;55.82;100640.72;7389169;19;1748;-44
2023/12/06 11:13:51;;;;;;;;;;;;;;;20.16;55.53;100654.28;7387856;19;1395;-44
2023/12/06 11:16:29;;;;;;;;;;;;;;;20.12;55.64;100650.22;7387325;19;1657;-44
2023/12/06 11:18:58;;;;;;;;;;;;;;;20.08;55.82;100640.75;7388643;19;1681;-44
2023/12/06 11:21:26;;;;;;;;;;;;;;;20.11;55.84;100640.44;7389537;19;1717;-44
2023/12/06 11:23:56;;;;;;;;;;;;;;;20.09;55.72;100653.16;7389648;19;1304;-44
2023/12/06 11:26:24;;;;;;;;;;;;;;;20.16;55.71;100650.78;7387274;19;1848;-44
2023/12/06 11:28:56;;;;;;;;;;;;;;;20.13;55.63;100643.84;7388412;19;1739;-44
2023/12/06 11:31:35;;;;;;;;;;;;;;;20.18;55.69;100635.38;7387653;19;1565;-44
2023/12/06 11:34:05;;;;;;;;;;;;;;;19.80;56.54;100629.94;7387638;19;1581;-44
2023/12/06 11:36:35;;;;;;;;;;;;;;;19.41;57.45;100637.97;7385841;19;1677;-44
2023/12/06 11:39:15;;;;;;;;;;;;;;;19.07;58.24;100635.72;7388070;19;1569;-44
2023/12/06 11:41:48;;;;;;;;;;;;;;;19.01;58.06;100638.09;7387559;19;1640;-44
2023/12/06 11:44:18;;;;;;;;;;;;;;;19.43;57.17;100638.69;7386341;19;1676;-44
2023/12/06 11:46:55;;;;;;;;;;;;;;;19.86;56.28;100645.47;7387168;19;1859;-44
2023/12/06 11:49:24;;;;;;;;;;;;;;;19.72;56.38;100632.50;7385931;19;1911;-44
2023/12/06 11:51:56;;;;;;;;;;;;;;;19.28;57.47;100649.00;7387660;19;1558;-44
2023/12/06 11:54:25;;;;;;;;;;;;;;;18.97;58.08;100650.94;7387208;19;2156;-44
2023/12/06 11:56:54;;;;;;;;;;;;;;;18.96;58.17;100643.88;7386385;19;1583;-45
2023/12/06 11:59:24;;;;;;;;;;;;;;;19.37;57.19;100630.38;7387461;19;1795;-44
2023/12/06 12:01:55;;;;;;;;;;;;;;;19.73;56.09;100631.50;7386896;19;1656;-44
2023/12/06 12:04:24;;;;;;;;;;;;;;;19.42;56.95;100628.97;7388060;19;1759;-44
2023/12/06 12:06:53;;;;;;;;;;;;;;;19.04;57.94;100646.72;7385338;19;1878;-44
2023/12/06 12:09:22;;;;;;;;;;;;;;;18.81;58.24;100655.97;7385909;19;1574;-44
2023/12/06 12:11:51;;;;;;;;;;;;;;;19.18;57.77;100641.91;7389179;19;1625;-44
2023/12/06 12:14:19;;;;;;;;;;;;;;;19.70;56.17;100641.66;7393779;19;1422;-44
2023/12/06 12:16:47;;;;;;;;;;;;;;;19.55;56.44;100633.19;7394271;19;1630;-44
2023/12/06 12:19:18;;;;;;;;;;;;;;;19.22;57.27;100643.38;7394454;19;1524;-44
2023/12/06 12:21:47;;;;;;;;;;;;;;;18.91;57.90;100667.56;7393619;19;1628;-45
2023/12/06 12:24:18;;;;;;;;;;;;;;;19.03;57.89;100642.34;7395058;19;1550;-44
2023/12/06 12:26:46;;;;;;;;;;;;;;;19.59;56.40;100639.97;7392694;19;1870;-44
2023/12/06 12:29:18;;;;;;;;;;;;;;;19.69;56.31;100630.06;7391557;19;1581;-44
2023/12/06 12:31:46;;;;;;;;;;;;;;;19.34;56.92;100631.50;7394114;19;1668;-43
2023/12/06 12:34:15;;;;;;;;;;;;;;;18.99;57.97;100629.34;7391318;19;1378;-44
2023/12/06 12:36:46;;;;;;;;;;;;;;;18.95;58.10;100617.22;7394216;19;1457;-44
2023/12/06 12:39:14;;;;;;;;;;;;;;;19.39;57.13;100618.50;7394363;19;1743;-44
2023/12/06 12:41:43;;;;;;;;;;;;;;;19.71;55.93;100641.53;7394710;19;1561;-44
2023/12/06 12:44:12;;;;;;;;;;;;;;;19.38;56.84;100622.19;7395703;19;1546;-44
2023/12/06 12:46:40;;;;;;;;;;;;;;;19.04;57.65;100635.16;7395302;19;1861;-44
2023/12/06 12:49:08;;;;;;;;;;;;;;;18.76;58.33;100626.03;7396048;19;1550;-44
2023/12/06 12:51:37;;;;;;;;;;;;;;;19.19;57.33;100636.44;7397245;19;1574;-44
2023/12/06 12:54:08;;;;;;;;;;;;;;;19.65;56.18;100613.41;7395244;19;1582;-44
2023/12/06 12:56:36;;;;;;;;;;;;;;;19.63;56.30;100630.63;7393679;19;1932;-44
2023/12/06 12:59:07;;;;;;;;;;;;;;;19.23;57.22;100623.59;7393346;19;1562;-44
2023/12/06 13:01:37;;;;;;;;;;;;;;;18.90;57.95;100623.00;7393932;19;1646;-44
2023/12/06 13:04:06;;;;;;;;;;;;;;;19.02;57.72;100616.53;7394032;19;1720;-44
2023/12/06 13:06:35;;;;;;;;;;;;;;;19.48;56.73;100623.03;7392084;19;1879;-44
2023/12/06 13:09:04;;;;;;;;;;;;;;;19.73;55.93;100638.69;7392886;19;1568;-44
2023/12/06 13:11:35;;;;;;;;;;;;;;;19.31;56.94;100629.09;7392789;19;1590;-44